Terminal Aerodrome Forecast
Issued by NWS Charleston, WV

Current Version | Previous Version | Graphics & Text | Print | Product List | Glossary Off
Versions: 1 2 3 4 5 6 7 8 9 10 11 12 13 14 15 16 17 18 19 20 21 22

000
FTUS41 KRLX 231700
TAFHTS
TAF
KHTS 231724Z 2318/2418 15007KT P6SM BKN070
     FM232100 15011G16KT 6SM -SHRA BR OVC050
     FM232300 14011G20KT 3SM -RA BR OVC045
     FM240400 16011G20KT 5SM -RA BR BKN020 OVC030
     FM240600 18010G18KT P6SM BKN020
     FM240900 20010KT P6SM SCT020
     FM241100 18011G19KT P6SM BKN035
     FM241600 20018G30KT P6SM BKN040=

USA.gov is the U.S. government's official web portal to all federal, state and local government web resources and services.